Nbp Liner — V2QM7 — position and weather

sailwx.info

Track history (hours):
 
Tides and Currents Weather Stations Pressure Air Temp Water Temp Dewpoint Dewpoint Depression Visibility Wind Speed Wind Dir Waves Ship Positions

Nbp Liner

Last reported at 2017-Oct-20 05:38 UTC. Time now 2017-Oct-23 02:39 UTC.
Position N 35°57' W 005°34'.

Length 107 m; draft 6.2 m.

Type: Cargo ship. MMSI: 305716000.

Date/timePositionNaut miles runAvg speedWind from/ knotsBaromVisibWave heightAir tempDewpointWater temp
2017-Oct-20 05:38N 35°57' W 005°34'1 7.1
2017-Oct-20 05:30N 35°58' W 005°33'4 7.3
2017-Oct-20 05:00N 35°59' W 005°29'4 8.2
2017-Oct-20 04:30N 35°60' W 005°24'4 8.4
2017-Oct-20 04:00N 36°01' W 005°19'4 7.9
2017-Oct-20 03:30N 36°02' W 005°15'5 9.1
2017-Oct-20 02:59N 36°03' W 005°09'209 9.8
2017-Oct-19 05:42N 37°13' W 001°04'211.5
2017-Oct-19 05:30N 37°15' W 001°02'711.4
2017-Oct-19 04:55N 37°19' W 000°55'511.2
2017-Oct-19 04:29N 37°22' W 000°51'611.6
2017-Oct-19 04:00N 37°26' W 000°46'611.5
2017-Oct-19 03:30N 37°30' W 000°40'511.0
2017-Oct-19 03:00N 37°33' W 000°35'611.2
2017-Oct-19 02:30N 37°38' W 000°31'611.3
2017-Oct-19 02:00N 37°42' W 000°27'811.2
2017-Oct-19 01:16N 37°49' W 000°21'511.4
2017-Oct-19 00:51N 37°53' W 000°18'411.3
2017-Oct-19 00:30N 37°57' W 000°15'  
Track history (hours):
 
Tides and Currents Weather Stations Pressure Air Temp Water Temp Dewpoint Dewpoint Depression Visibility Wind Speed Wind Dir Waves Ship Positions

Nbp Liner

Last reported at 2017-Oct-20 05:38 UTC. Time now 2017-Oct-23 02:39 UTC.
Position N 35°57' W 005°34'.

Length 107 m; draft 6.2 m.

Type: Cargo ship. MMSI: 305716000.

Date/timePositionNaut miles runAvg speedWind from/ knotsBaromVisibWave heightAir tempDewpointWater temp
2017-Oct-20 05:38N 35°57' W 005°34'1 7.1
2017-Oct-20 05:30N 35°58' W 005°33'4 7.3
2017-Oct-20 05:00N 35°59' W 005°29'4 8.2
2017-Oct-20 04:30N 35°60' W 005°24'4 8.4
2017-Oct-20 04:00N 36°01' W 005°19'4 7.9
2017-Oct-20 03:30N 36°02' W 005°15'5 9.1
2017-Oct-20 02:59N 36°03' W 005°09'209 9.8
2017-Oct-19 05:42N 37°13' W 001°04'211.5
2017-Oct-19 05:30N 37°15' W 001°02'711.4
2017-Oct-19 04:55N 37°19' W 000°55'511.2
2017-Oct-19 04:29N 37°22' W 000°51'611.6
2017-Oct-19 04:00N 37°26' W 000°46'611.5
2017-Oct-19 03:30N 37°30' W 000°40'511.0
2017-Oct-19 03:00N 37°33' W 000°35'611.2
2017-Oct-19 02:30N 37°38' W 000°31'611.3
2017-Oct-19 02:00N 37°42' W 000°27'811.2
2017-Oct-19 01:16N 37°49' W 000°21'511.4
2017-Oct-19 00:51N 37°53' W 000°18'411.3
2017-Oct-19 00:30N 37°57' W 000°15'  

Dump ship's entire track history